createdAt,value
2022-11-22T00:00:49.125Z,-2.80
2022-11-22T00:03:16.727Z,-2.70
2022-11-22T00:05:46.901Z,-2.80
2022-11-22T00:08:14.538Z,-2.70
2022-11-22T00:10:42.307Z,-2.70
2022-11-22T00:13:10.988Z,-2.60
2022-11-22T00:15:40.571Z,-2.70
2022-11-22T00:18:08.540Z,-2.60
2022-11-22T00:20:36.499Z,-2.60
2022-11-22T00:23:04.228Z,-2.40
2022-11-22T00:25:31.809Z,-2.40
2022-11-22T00:27:59.408Z,-2.20
2022-11-22T00:30:27.061Z,-2.30
2022-11-22T00:32:54.641Z,-2.50
2022-11-22T00:35:22.394Z,-2.40
2022-11-22T00:37:50.080Z,-2.40
2022-11-22T00:40:17.778Z,-2.40
2022-11-22T00:42:45.437Z,-2.30
2022-11-22T00:45:13.062Z,-2.10
2022-11-22T00:47:40.710Z,-2.00
2022-11-22T00:50:09.628Z,-2.10
2022-11-22T00:52:37.226Z,-2.10
2022-11-22T00:55:05.170Z,-2.30
2022-11-22T00:57:32.852Z,-2.40
2022-11-22T01:00:00.460Z,-2.30
2022-11-22T01:02:28.009Z,-2.20
2022-11-22T01:04:55.735Z,-2.30
2022-11-22T01:07:23.400Z,-2.20
2022-11-22T01:09:51.103Z,-2.40
2022-11-22T01:12:18.704Z,-2.20
2022-11-22T01:14:46.288Z,-2.20
2022-11-22T01:17:15.771Z,-2.30
2022-11-22T01:19:43.416Z,-2.30
2022-11-22T01:22:11.079Z,-2.40
2022-11-22T01:24:38.991Z,-2.40
2022-11-22T01:27:06.867Z,-2.40
2022-11-22T01:29:34.656Z,-2.30
2022-11-22T01:32:02.432Z,-2.10
2022-11-22T01:34:30.058Z,-2.00
2022-11-22T01:36:57.707Z,-2.10
2022-11-22T01:39:25.770Z,-2.10
2022-11-22T01:41:53.453Z,-2.00
2022-11-22T01:44:25.977Z,-2.10
2022-11-22T01:47:13.987Z,-2.10
2022-11-22T01:49:50.652Z,-2.00
2022-11-22T01:52:20.796Z,-2.00
2022-11-22T01:54:54.202Z,-2.10
2022-11-22T01:57:26.087Z,-2.00
2022-11-22T02:00:00.206Z,-2.10
2022-11-22T02:02:28.549Z,-2.10
2022-11-22T02:04:58.337Z,-2.20
2022-11-22T02:07:34.747Z,-2.30
2022-11-22T02:10:02.415Z,-2.20
2022-11-22T02:12:32.025Z,-2.00
2022-11-22T02:14:59.869Z,-2.00
2022-11-22T02:17:28.051Z,-1.80
2022-11-22T02:19:56.613Z,-1.90
2022-11-22T02:22:50.933Z,-1.90
2022-11-22T02:25:29.441Z,-1.80
2022-11-22T02:27:57.053Z,-1.70
2022-11-22T02:30:24.757Z,-1.80
2022-11-22T02:32:52.387Z,-1.90
2022-11-22T02:35:26.268Z,-1.70
2022-11-22T02:37:58.272Z,-1.60
2022-11-22T02:40:29.200Z,-1.60
2022-11-22T02:43:02.411Z,-1.70
2022-11-22T02:45:30.620Z,-1.70
2022-11-22T02:48:06.684Z,-1.50
2022-11-22T02:50:34.415Z,-1.40
2022-11-22T02:53:02.104Z,-1.40
2022-11-22T02:55:29.814Z,-1.40
2022-11-22T02:57:57.437Z,-1.40
2022-11-22T03:00:25.156Z,-1.30
2022-11-22T03:02:53.249Z,-1.30
2022-11-22T03:05:20.883Z,-1.20
2022-11-22T03:07:48.551Z,-1.20
2022-11-22T03:10:16.480Z,-1.30
2022-11-22T03:12:44.155Z,-1.40
2022-11-22T03:15:12.218Z,-1.30
2022-11-22T03:17:39.894Z,-1.20
2022-11-22T03:20:08.444Z,-1.20
2022-11-22T03:22:36.262Z,-1.20
2022-11-22T03:25:04.157Z,-1.00
2022-11-22T03:27:31.834Z,-1.10
2022-11-22T03:29:59.547Z,-1.10
2022-11-22T03:32:27.570Z,-1.20
2022-11-22T03:34:55.610Z,-1.30
2022-11-22T03:37:26.008Z,-1.30
2022-11-22T03:39:53.785Z,-1.20
2022-11-22T03:42:22.273Z,-1.10
2022-11-22T03:44:50.013Z,-1.10
2022-11-22T03:47:17.826Z,-1.00
2022-11-22T03:49:45.502Z,-1.20
2022-11-22T03:52:13.315Z,-1.10
2022-11-22T03:54:40.940Z,-1.00
2022-11-22T03:57:08.636Z,-1.00
2022-11-22T03:59:36.221Z,-1.00
2022-11-22T04:02:04.390Z,-1.10
2022-11-22T04:04:32.094Z,-1.20
2022-11-22T04:06:59.787Z,-1.20
2022-11-22T04:09:27.660Z,-1.20
2022-11-22T04:11:55.482Z,-1.20
2022-11-22T04:14:41.894Z,-1.20
2022-11-22T04:17:12.473Z,-1.20
2022-11-22T04:20:00.157Z,-1.00
2022-11-22T04:22:27.715Z,-1.00
2022-11-22T04:25:13.718Z,-1.10
2022-11-22T04:27:41.377Z,-1.20
2022-11-22T04:30:09.242Z,-1.20
2022-11-22T04:32:45.851Z,-1.20
2022-11-22T04:35:18.595Z,-1.20
2022-11-22T04:37:52.528Z,-1.20
2022-11-22T04:40:20.113Z,-1.10
2022-11-22T04:43:06.231Z,-1.00
2022-11-22T04:45:33.858Z,-1.10
2022-11-22T04:48:02.331Z,-1.10
2022-11-22T04:50:50.518Z,-1.10
2022-11-22T04:53:18.653Z,-1.00
2022-11-22T04:55:47.419Z,-1.00
2022-11-22T04:58:15.951Z,-1.00
2022-11-22T05:00:44.279Z,-1.00
2022-11-22T05:03:14.724Z,-1.10
2022-11-22T05:05:43.950Z,-1.20
2022-11-22T05:08:12.294Z,-1.10
2022-11-22T05:10:58.525Z,-1.00
2022-11-22T05:13:30.875Z,-1.00
2022-11-22T05:15:59.644Z,-1.00
2022-11-22T05:18:28.351Z,-1.00
2022-11-22T05:20:56.476Z,-0.90
2022-11-22T05:23:43.111Z,-0.70
2022-11-22T05:26:11.501Z,-0.70
2022-11-22T05:28:39.534Z,-0.80
2022-11-22T05:31:12.763Z,-0.70
2022-11-22T05:33:42.334Z,-0.80
2022-11-22T05:36:10.978Z,-0.80
2022-11-22T05:38:39.067Z,-0.80
2022-11-22T05:41:12.330Z,-0.70
2022-11-22T05:43:40.620Z,-0.70
2022-11-22T05:46:24.630Z,-0.70
2022-11-22T05:48:54.538Z,-0.80
2022-11-22T05:51:30.551Z,-0.80
2022-11-22T05:54:00.095Z,-0.70
2022-11-22T05:56:27.718Z,-0.60
2022-11-22T05:58:55.444Z,-0.60
2022-11-22T06:01:24.897Z,-0.50
2022-11-22T06:03:52.992Z,-0.50
2022-11-22T06:06:21.084Z,-0.60
2022-11-22T06:08:48.978Z,-0.50
2022-11-22T06:11:27.811Z,-0.50
2022-11-22T06:13:58.859Z,-0.50
2022-11-22T06:16:29.377Z,-0.50
2022-11-22T06:18:57.336Z,-0.50
2022-11-22T06:21:26.234Z,-0.40
2022-11-22T06:23:54.876Z,-0.30
2022-11-22T06:26:24.144Z,-0.30
2022-11-22T06:28:52.233Z,-0.30
2022-11-22T06:31:22.291Z,-0.40
2022-11-22T06:33:50.822Z,-0.30
2022-11-22T06:36:20.571Z,-0.40
2022-11-22T06:38:51.470Z,-0.40
2022-11-22T06:41:21.623Z,-0.40
2022-11-22T06:43:51.060Z,-0.30
2022-11-22T06:46:21.302Z,-0.30
2022-11-22T06:48:49.723Z,-0.30
2022-11-22T06:51:21.453Z,-0.40
2022-11-22T06:53:50.172Z,-0.30
2022-11-22T06:56:19.316Z,-0.30
2022-11-22T06:58:48.241Z,-0.40
2022-11-22T07:01:27.862Z,-0.40
2022-11-22T07:03:58.672Z,-0.40
2022-11-22T07:06:31.772Z,-0.30
2022-11-22T07:09:00.985Z,-0.30
2022-11-22T07:11:30.924Z,-0.20
2022-11-22T07:14:06.944Z,-0.20
2022-11-22T07:16:36.797Z,-0.20
2022-11-22T07:19:05.207Z,-0.20
2022-11-22T07:21:34.466Z,-0.10
2022-11-22T07:24:04.065Z,0.00
2022-11-22T07:26:31.638Z,-0.10
2022-11-22T07:28:59.213Z,-0.10
2022-11-22T07:31:26.903Z,-0.20
2022-11-22T07:33:57.236Z,-0.20
2022-11-22T07:36:25.109Z,-0.20
2022-11-22T07:38:52.747Z,-0.20
2022-11-22T07:41:20.403Z,-0.10
2022-11-22T07:43:48.188Z,0.00
2022-11-22T07:46:23.987Z,0.10
2022-11-22T07:48:51.604Z,0.00
2022-11-22T07:51:19.593Z,0.00
2022-11-22T07:53:47.370Z,0.00
2022-11-22T07:56:16.074Z,0.00
2022-11-22T07:58:43.782Z,0.10
2022-11-22T08:01:16.876Z,0.30
2022-11-22T08:03:45.109Z,0.20
2022-11-22T08:06:13.592Z,0.10
2022-11-22T08:08:41.553Z,0.10
2022-11-22T08:11:11.036Z,0.20
2022-11-22T08:13:39.102Z,0.20
2022-11-22T08:16:11.949Z,0.30
2022-11-22T08:18:40.536Z,0.40
2022-11-22T08:21:11.014Z,0.50
2022-11-22T08:23:39.614Z,0.50
2022-11-22T08:26:09.247Z,0.40
2022-11-22T08:28:40.070Z,0.50
2022-11-22T08:31:19.474Z,0.50
2022-11-22T08:33:49.210Z,0.60
2022-11-22T08:36:16.912Z,0.60
2022-11-22T08:38:51.063Z,0.50
2022-11-22T08:41:20.676Z,0.50
2022-11-22T08:43:52.925Z,0.50
2022-11-22T08:46:20.578Z,0.60
2022-11-22T08:48:48.200Z,0.60
2022-11-22T08:51:15.945Z,0.60
2022-11-22T08:53:45.398Z,0.50
2022-11-22T08:56:14.696Z,0.60
2022-11-22T08:58:42.957Z,0.70
2022-11-22T09:01:16.383Z,0.80
2022-11-22T09:03:45.072Z,0.80
2022-11-22T09:09:29.896Z,0.80
2022-11-22T09:11:51.244Z,0.80
2022-11-22T09:14:18.852Z,0.90
2022-11-22T09:16:46.449Z,0.90
2022-11-22T09:19:14.115Z,0.80
2022-11-22T09:21:41.752Z,1.00
2022-11-22T09:24:09.582Z,1.10
2022-11-22T09:26:37.247Z,1.20
2022-11-22T09:29:05.270Z,1.00
2022-11-22T09:31:33.077Z,1.10
2022-11-22T09:34:00.771Z,1.00
2022-11-22T09:36:28.481Z,1.10
2022-11-22T09:38:56.452Z,1.10
2022-11-22T09:41:45.884Z,1.00
2022-11-22T09:44:40.196Z,1.10
2022-11-22T09:47:35.320Z,1.10
2022-11-22T09:50:21.602Z,1.10
2022-11-22T09:52:50.790Z,1.00
2022-11-22T09:55:36.960Z,1.10
2022-11-22T09:58:36.684Z,1.20
2022-11-22T10:01:35.116Z,1.40
2022-11-22T10:04:08.625Z,1.30
2022-11-22T10:07:04.000Z,1.30
2022-11-22T10:10:02.814Z,1.40
2022-11-22T10:12:50.891Z,1.50
2022-11-22T10:15:39.091Z,1.50
2022-11-22T10:18:32.602Z,1.30
2022-11-22T10:21:00.602Z,1.40
2022-11-22T10:27:15.822Z,1.60
2022-11-22T10:30:22.565Z,1.80
2022-11-22T10:33:17.324Z,1.70
2022-11-22T10:35:44.865Z,1.70
2022-11-22T10:38:37.418Z,1.60
2022-11-22T10:41:29.298Z,1.70
2022-11-22T10:44:02.759Z,1.70
2022-11-22T10:46:57.082Z,1.70
2022-11-22T10:49:46.267Z,1.50
2022-11-22T10:52:52.020Z,1.40
2022-11-22T10:55:23.804Z,1.40
2022-11-22T10:58:03.354Z,1.40
2022-11-22T11:00:33.082Z,1.50
2022-11-22T11:03:09.080Z,1.50
2022-11-22T11:06:21.187Z,1.60
2022-11-22T11:11:41.160Z,1.60
2022-11-22T11:14:29.380Z,1.70
2022-11-22T11:16:57.961Z,1.70
2022-11-22T11:19:28.339Z,1.80
2022-11-22T11:22:07.296Z,1.80
2022-11-22T11:24:51.408Z,1.60
2022-11-22T11:27:28.928Z,1.70
2022-11-22T11:30:01.912Z,1.60
2022-11-22T11:32:29.514Z,1.70
2022-11-22T11:35:07.927Z,1.70
2022-11-22T11:37:37.967Z,1.70
2022-11-22T11:40:24.862Z,1.70
2022-11-22T11:43:15.138Z,1.60
2022-11-22T11:45:42.956Z,1.50
2022-11-22T11:48:35.131Z,1.50
2022-11-22T11:51:14.272Z,1.50
2022-11-22T11:53:50.852Z,1.50
2022-11-22T11:56:31.897Z,1.50
2022-11-22T11:59:03.892Z,1.50
2022-11-22T12:01:38.781Z,1.60
2022-11-22T12:04:31.905Z,1.60
2022-11-22T12:07:16.279Z,1.60
2022-11-22T12:09:46.279Z,1.70
2022-11-22T12:12:45.265Z,1.70
2022-11-22T12:15:32.601Z,1.80
2022-11-22T12:18:20.676Z,1.70
2022-11-22T12:21:15.670Z,1.80
2022-11-22T12:24:34.433Z,1.80
2022-11-22T12:26:49.833Z,1.80
2022-11-22T12:29:17.425Z,1.80
2022-11-22T12:32:12.896Z,1.70
2022-11-22T12:34:58.526Z,1.70
2022-11-22T12:37:41.896Z,1.80
2022-11-22T12:40:19.061Z,1.70
2022-11-22T12:42:59.241Z,1.80
2022-11-22T12:45:31.396Z,1.80
2022-11-22T12:48:04.702Z,1.80
2022-11-22T12:50:41.952Z,1.80
2022-11-22T12:53:22.689Z,1.90
2022-11-22T12:55:59.373Z,1.90
2022-11-22T12:58:33.061Z,1.90
2022-11-22T13:01:09.300Z,1.90
2022-11-22T13:03:45.846Z,1.80
2022-11-22T13:06:16.707Z,1.70
2022-11-22T13:09:00.303Z,1.70
2022-11-22T13:12:11.553Z,1.70
2022-11-22T13:14:55.371Z,1.70
2022-11-22T13:17:34.238Z,1.70
2022-11-22T13:20:41.138Z,1.70
2022-11-22T13:23:31.101Z,1.90
2022-11-22T13:26:43.781Z,1.90
2022-11-22T13:29:33.706Z,1.80
2022-11-22T13:33:50.002Z,1.90
2022-11-22T13:36:45.044Z,2.00
2022-11-22T13:39:47.372Z,1.90
2022-11-22T13:42:38.621Z,1.90
2022-11-22T13:45:19.608Z,1.90
2022-11-22T13:48:04.062Z,1.80
2022-11-22T13:50:48.821Z,2.00
2022-11-22T13:53:31.402Z,2.00
2022-11-22T13:56:25.684Z,1.90
2022-11-22T13:59:18.783Z,1.90
2022-11-22T14:01:53.004Z,1.90
2022-11-22T14:04:38.937Z,1.90
2022-11-22T14:07:12.757Z,1.90
2022-11-22T14:09:53.111Z,1.90
2022-11-22T14:12:41.431Z,1.90
2022-11-22T14:15:28.088Z,2.00
2022-11-22T14:17:55.670Z,2.00
2022-11-22T14:20:39.567Z,2.00
2022-11-22T14:23:19.127Z,1.90
2022-11-22T14:26:13.580Z,1.90
2022-11-22T14:28:53.657Z,1.90
2022-11-22T14:31:25.597Z,1.90
2022-11-22T14:34:28.863Z,1.90
2022-11-22T14:37:15.446Z,1.90
2022-11-22T14:39:53.516Z,2.00
2022-11-22T14:43:00.727Z,2.00
2022-11-22T14:45:49.570Z,2.00
2022-11-22T14:48:20.556Z,1.90
2022-11-22T14:50:58.396Z,2.00
2022-11-22T14:53:49.934Z,2.00
2022-11-22T14:56:24.738Z,2.00
2022-11-22T14:59:01.924Z,1.90
2022-11-22T15:02:00.664Z,1.80
2022-11-22T15:09:14.915Z,1.90
2022-11-22T15:09:16.808Z,1.80
2022-11-22T15:11:06.948Z,1.90
2022-11-22T15:14:01.442Z,1.90
2022-11-22T15:58:12.519Z,2.00
2022-11-22T16:00:44.270Z,2.00
2022-11-22T16:03:22.998Z,2.00
2022-11-22T16:06:10.894Z,2.00
2022-11-22T16:08:39.855Z,2.00
2022-11-22T16:11:16.607Z,2.10
2022-11-22T16:13:45.502Z,2.00
2022-11-22T16:16:34.007Z,2.10
2022-11-22T16:19:23.873Z,2.00
2022-11-22T16:21:59.535Z,1.90
2022-11-22T16:24:33.528Z,2.00
2022-11-22T16:27:05.513Z,2.00
2022-11-22T16:29:37.141Z,2.00
2022-11-22T16:32:13.793Z,2.10
2022-11-22T16:34:44.306Z,2.10
2022-11-22T16:37:48.194Z,2.10
2022-11-22T16:40:16.382Z,2.10
2022-11-22T16:42:45.117Z,2.10
2022-11-22T16:45:16.681Z,2.00
2022-11-22T16:47:44.774Z,2.00
2022-11-22T16:50:16.943Z,1.90
2022-11-22T16:52:46.110Z,2.00
2022-11-22T16:55:19.776Z,2.00
2022-11-22T16:57:47.445Z,2.10
2022-11-22T17:00:15.844Z,2.00
2022-11-22T17:02:43.414Z,2.00
2022-11-22T17:05:17.307Z,2.00
2022-11-22T17:07:45.836Z,2.00
2022-11-22T17:10:13.472Z,2.00
2022-11-22T17:12:42.459Z,2.10
2022-11-22T17:15:13.418Z,2.10
2022-11-22T17:17:40.982Z,2.10
2022-11-22T17:20:09.109Z,2.10
2022-11-22T17:22:39.350Z,2.10
2022-11-22T17:25:12.791Z,2.00
2022-11-22T17:27:41.119Z,2.00
2022-11-22T17:30:09.508Z,2.10
2022-11-22T17:32:37.278Z,2.10
2022-11-22T17:35:09.137Z,2.10
2022-11-22T17:37:37.214Z,2.10
2022-11-22T17:40:05.294Z,2.20
2022-11-22T17:42:36.744Z,2.10
2022-11-22T17:45:08.918Z,2.10
2022-11-22T17:47:36.534Z,2.00
2022-11-22T17:50:04.651Z,2.00
2022-11-22T17:52:34.405Z,2.00
2022-11-22T17:55:05.730Z,2.10
2022-11-22T17:57:36.098Z,2.10
2022-11-22T18:00:07.237Z,2.10
2022-11-22T18:02:35.667Z,2.00
2022-11-22T18:05:08.313Z,2.00
2022-11-22T18:07:42.871Z,2.10
2022-11-22T18:10:10.965Z,2.10
2022-11-22T18:12:42.232Z,2.10
2022-11-22T18:15:10.639Z,2.10
2022-11-22T18:17:38.197Z,2.10
2022-11-22T18:20:06.289Z,2.10
2022-11-22T18:22:34.432Z,2.10
2022-11-22T18:25:05.130Z,2.10
2022-11-22T18:27:40.672Z,2.10
2022-11-22T18:30:10.771Z,2.10
2022-11-22T18:32:38.460Z,2.10
2022-11-22T18:35:06.301Z,2.10
2022-11-22T18:37:34.342Z,2.00
2022-11-22T18:40:01.936Z,2.10
2022-11-22T18:42:29.643Z,2.00
2022-11-22T18:44:57.217Z,2.00
2022-11-22T18:47:24.923Z,2.00
2022-11-22T18:49:52.578Z,1.90
2022-11-22T18:52:22.990Z,2.10
2022-11-22T18:54:51.641Z,2.00
2022-11-22T18:57:19.379Z,2.00
2022-11-22T18:59:46.935Z,2.00
2022-11-22T19:02:14.537Z,2.00
2022-11-22T19:04:42.119Z,2.10
2022-11-22T19:07:10.161Z,2.10
2022-11-22T19:09:37.770Z,2.10
2022-11-22T19:12:05.566Z,2.10
2022-11-22T19:14:33.462Z,2.00
2022-11-22T19:17:01.310Z,2.00
2022-11-22T19:19:32.431Z,2.00
2022-11-22T19:22:02.006Z,2.00
2022-11-22T19:24:30.439Z,2.00
2022-11-22T19:26:58.251Z,2.00
2022-11-22T19:29:25.944Z,1.90
2022-11-22T19:31:53.679Z,1.90
2022-11-22T19:34:21.261Z,1.90
2022-11-22T19:36:49.020Z,1.90
2022-11-22T19:39:16.615Z,1.90
2022-11-22T19:41:44.999Z,2.00
2022-11-22T19:44:12.594Z,2.00
2022-11-22T19:46:41.599Z,2.00
2022-11-22T19:49:10.172Z,2.00
2022-11-22T19:51:39.063Z,2.10
2022-11-22T19:54:06.961Z,2.00
2022-11-22T19:56:37.146Z,2.00
2022-11-22T19:59:06.951Z,2.00
2022-11-22T20:01:35.669Z,2.00
2022-11-22T20:04:05.868Z,2.00
2022-11-22T20:06:36.141Z,2.10
2022-11-22T20:09:11.952Z,2.00
2022-11-22T20:11:40.731Z,2.00
2022-11-22T20:14:09.477Z,2.00
2022-11-22T20:16:41.327Z,2.10
2022-11-22T20:19:10.623Z,2.10
2022-11-22T20:21:39.516Z,2.00
2022-11-22T20:24:07.428Z,2.10
2022-11-22T20:26:35.156Z,2.00
2022-11-22T20:29:05.831Z,2.00
2022-11-22T20:31:35.152Z,2.10
2022-11-22T20:34:03.477Z,2.10
2022-11-22T20:36:33.380Z,2.10
2022-11-22T20:39:05.540Z,2.10
2022-11-22T20:41:36.655Z,2.00
2022-11-22T20:44:07.293Z,2.00
2022-11-22T20:46:37.847Z,2.10
2022-11-22T20:49:05.455Z,2.10
2022-11-22T20:51:36.056Z,2.00
2022-11-22T20:54:03.856Z,2.00
2022-11-22T20:56:31.592Z,2.10
2022-11-22T20:58:59.448Z,2.20
2022-11-22T21:01:29.398Z,2.20
2022-11-22T21:03:57.584Z,2.10
2022-11-22T21:06:27.607Z,2.10
2022-11-22T21:08:58.273Z,2.10
2022-11-22T21:11:31.289Z,2.10
2022-11-22T21:13:59.137Z,2.10
2022-11-22T21:16:29.153Z,2.10
2022-11-22T21:19:02.430Z,2.20
2022-11-22T21:21:31.104Z,2.10
2022-11-22T21:24:01.323Z,2.20
2022-11-22T21:26:29.149Z,2.10
2022-11-22T21:28:57.545Z,2.10
2022-11-22T21:31:25.559Z,2.10
2022-11-22T21:33:53.736Z,2.10
2022-11-22T21:36:22.567Z,2.20
2022-11-22T21:38:50.178Z,2.10
2022-11-22T21:44:09.245Z,2.10
2022-11-22T21:46:37.062Z,2.10
2022-11-22T21:49:04.634Z,2.10
2022-11-22T21:51:32.522Z,2.10
2022-11-22T21:54:03.149Z,2.20
2022-11-22T21:56:31.718Z,2.10
2022-11-22T21:59:02.039Z,2.10
2022-11-22T22:01:29.770Z,2.10
2022-11-22T22:03:57.464Z,2.10
2022-11-22T22:06:25.322Z,2.10
2022-11-22T22:08:52.984Z,2.10
2022-11-22T22:11:21.075Z,2.00
2022-11-22T22:13:48.721Z,2.00
2022-11-22T22:16:19.056Z,2.00
2022-11-22T22:18:47.778Z,2.00
2022-11-22T22:21:17.313Z,2.10
2022-11-22T22:23:45.692Z,2.00
2022-11-22T22:26:16.428Z,2.00
2022-11-22T22:28:45.301Z,2.10
2022-11-22T22:31:22.359Z,2.10
2022-11-22T22:33:57.431Z,2.00
2022-11-22T22:36:27.028Z,2.00
2022-11-22T22:38:55.086Z,1.90
2022-11-22T22:41:22.950Z,1.90
2022-11-22T22:43:50.567Z,2.00
2022-11-22T22:46:24.786Z,2.00
2022-11-22T22:48:54.838Z,1.90
2022-11-22T22:51:30.637Z,1.90
2022-11-22T22:54:00.861Z,2.00
2022-11-22T22:56:30.120Z,2.00
2022-11-22T22:59:00.850Z,1.90
2022-11-22T23:01:30.961Z,2.00
2022-11-22T23:03:59.948Z,2.10
2022-11-22T23:06:29.937Z,2.00
2022-11-22T23:09:00.597Z,2.00
2022-11-22T23:11:49.013Z,2.00
2022-11-22T23:14:20.048Z,2.00
2022-11-22T23:16:47.631Z,2.00
2022-11-22T23:19:15.276Z,2.00
2022-11-22T23:21:43.018Z,2.00
2022-11-22T23:24:10.836Z,2.00
2022-11-22T23:26:38.787Z,2.00
2022-11-22T23:29:06.757Z,2.00
2022-11-22T23:31:34.535Z,2.10
2022-11-22T23:34:02.519Z,2.10
2022-11-22T23:36:30.346Z,2.10
2022-11-22T23:38:57.935Z,2.10
2022-11-22T23:41:25.919Z,2.00
2022-11-22T23:43:55.123Z,2.00
2022-11-22T23:46:26.465Z,2.00
2022-11-22T23:48:56.460Z,2.00
2022-11-22T23:51:25.632Z,2.00
2022-11-22T23:53:57.478Z,1.90
2022-11-22T23:56:26.430Z,2.00
2022-11-22T23:58:54.163Z,2.00
